Archival Weather

Chicago O'Hare International

Chicago, Illinois (KORD)

Report from: Monday, January 2, 2023 8:51 PM CST
Current time: Monday, June 17, 2024 2:09 AM CDT

Current weather – Weather history – Daily summaries
Weather forecast

Present weatherMist
Temperature3.3°C (37.9°F)
Wind chill-0.6°C (30.9°F)
Dew point1.7°C (35.1°F)
Winds 9 kts (4.6 m/s, 10.4 mph) North-Northeast (30°)
Visibility1.3 mi. (2 km)
Clouds Ceiling: Overcast 200 ft. (61 m)
Altimeter29.96 in.Hg (1015 mB)
Relative humidity89 %
Density altitude-1,376 ft. (-419 m)
Sea-level pressure101.5 kPa (1015 mB, 29.97 in.Hg)
Remarks Automated weather observing station with precipitation discriminator
Pressure falling more quickly
Flight conditions Low Instrument Meteorological Conditions
Raw dataKORD 030251Z 03009KT 1 1/4SM BR OVC002 03/02 A2996 RMK AO2 SLP150 T00330017 58005
An error has occurred. This application may no longer respond until reloaded. Reload 🗙